Time;durP1;ratioP1;P1;durP2;ratioP2;P2;SDS_P1;SDS_P2;PMS_P1;PMS_P2;Temp;Humidity;BMP_temperature;BMP_pressure;BME280_temperature;BME280_humidity;BME280_pressure;Samples;Min_cycle;Max_cycle;Signal;HPM_P1;HPM_P2
2023/01/18 00:00:05;;;;;;;0.10;0.10;;;;;;;3.54;100.00;97098.06;6016451;23;20438;-91
2023/01/18 00:02:31;;;;;;;0.30;0.30;;;;;;;3.41;100.00;97075.53;6040755;23;20416;-89
2023/01/18 00:04:56;;;;;;;0.00;0.00;;;;;;;3.59;100.00;97094.69;6064020;23;20035;-91
2023/01/18 00:07:22;;;;;;;0.10;0.10;;;;;;;3.48;100.00;97072.47;6016655;23;20086;-91
2023/01/18 00:09:47;;;;;;;0.95;0.77;;;;;;;3.48;100.00;97077.97;6088036;23;20029;-91
2023/01/18 00:12:13;;;;;;;0.30;0.30;;;;;;;3.57;100.00;97080.69;6039933;23;20022;-90
2023/01/18 00:14:38;;;;;;;0.00;0.00;;;;;;;3.52;100.00;97062.13;6040653;23;20014;-90
2023/01/18 00:17:04;;;;;;;1.30;0.70;;;;;;;3.59;100.00;97061.81;6088663;23;20011;-92
2023/01/18 00:19:30;;;;;;;0.10;0.10;;;;;;;3.45;100.00;97032.31;6064910;23;20041;-92
2023/01/18 00:21:56;;;;;;;0.00;0.00;;;;;;;3.59;100.00;97050.84;6017723;23;20137;-92
2023/01/18 00:24:22;;;;;;;0.25;0.25;;;;;;;3.50;100.00;97028.94;6062924;23;20435;-92
2023/01/18 00:26:48;;;;;;;0.00;0.00;;;;;;;3.67;100.00;97063.00;6064644;23;20014;-92
2023/01/18 00:29:14;;;;;;;0.90;0.90;;;;;;;3.49;100.00;97046.59;6039573;23;20038;-92
2023/01/18 00:31:40;;;;;;;0.00;0.00;;;;;;;3.49;100.00;97049.34;6064842;23;20438;-92
2023/01/18 00:34:06;;;;;;;0.00;0.00;;;;;;;3.58;100.00;97056.78;6040835;23;20393;-92
2023/01/18 00:36:32;;;;;;;0.20;0.20;;;;;;;3.46;100.00;97028.34;6064200;23;20010;-91
2023/01/18 00:38:58;;;;;;;0.00;0.00;;;;;;;3.62;100.00;97038.19;6063675;23;20015;-90
2023/01/18 00:41:24;;;;;;;2.83;1.35;;;;;;;3.68;100.00;97053.53;6064062;23;20207;-90
2023/01/18 00:43:50;;;;;;;3.35;0.57;;;;;;;3.49;100.00;97023.91;6064183;23;20366;-91
2023/01/18 00:46:23;;;;;;;0.10;0.10;;;;;;;3.47;100.00;97020.88;6063520;23;20046;-91
2023/01/18 00:48:50;;;;;;;0.20;0.20;;;;;;;3.56;100.00;97035.31;6063919;23;20015;-92
2023/01/18 00:51:21;;;;;;;0.00;0.00;;;;;;;3.73;100.00;97058.38;6063675;23;20022;-91
2023/01/18 00:53:46;;;;;;;0.08;0.08;;;;;;;3.66;100.00;97045.03;6040377;23;20014;-91
2023/01/18 00:56:15;;;;;;;0.00;0.00;;;;;;;3.59;100.00;97028.91;6064682;23;20327;-91
2023/01/18 00:58:41;;;;;;;0.85;0.43;;;;;;;3.78;100.00;97083.66;6015648;23;20014;-92
2023/01/18 01:01:08;;;;;;;0.20;0.20;;;;;;;3.79;100.00;97079.69;6040058;23;20025;-92
2023/01/18 01:09:06;;;;;;;0.00;0.00;;;;;;;3.82;100.00;97097.97;6063808;23;20046;-93
2023/01/18 01:11:31;;;;;;;0.10;0.10;;;;;;;3.65;100.00;97073.66;6016159;23;20011;-92
2023/01/18 01:27:37;;;;;;;;;;;;;;;3.65;100.00;97098.31;6067493;23;20050;-90
2023/01/18 01:30:02;;;;;;;0.05;0.05;;;;;;;3.65;100.00;97101.06;6039621;23;19914;-91
2023/01/18 01:32:28;;;;;;;0.10;0.10;;;;;;;3.58;100.00;97090.44;6039508;23;20089;-91
2023/01/18 01:34:54;;;;;;;0.20;0.20;;;;;;;3.71;100.00;97118.41;6063543;23;20007;-92
2023/01/18 01:37:19;;;;;;;0.00;0.00;;;;;;;3.68;100.00;97119.31;6063380;23;20015;-93
2023/01/18 01:39:45;;;;;;;0.28;0.28;;;;;;;3.55;100.00;97099.56;6015907;23;20163;-92
2023/01/18 01:42:10;;;;;;;0.98;0.80;;;;;;;3.66;100.00;97115.53;6063527;23;20019;-93
2023/01/18 01:44:43;;;;;;;0.00;0.00;;;;;;;3.44;100.00;97088.31;6063056;23;20006;-92
2023/01/18 01:47:11;;;;;;;0.13;0.13;;;;;;;3.57;100.00;97093.63;6039553;23;20029;-94
2023/01/18 01:49:45;;;;;;;0.10;0.10;;;;;;;3.72;100.00;97105.47;6065023;23;20322;-93
2023/01/18 01:52:17;;;;;;;0.20;0.20;;;;;;;3.50;100.00;97074.75;6064283;23;20019;-90
2023/01/18 01:55:00;;;;;;;0.03;0.03;;;;;;;3.57;100.00;97074.44;6062805;23;20041;-91
2023/01/18 01:57:33;;;;;;;0.95;0.95;;;;;;;3.75;100.00;97085.34;6063277;23;20047;-91
2023/01/18 02:00:02;;;;;;;0.08;0.08;;;;;;;3.56;100.00;97062.72;6086876;23;20050;-91
2023/01/18 02:02:38;;;;;;;0.00;0.00;;;;;;;3.82;100.00;97095.22;6064803;23;20349;-91
2023/01/18 02:05:06;;;;;;;0.75;0.70;;;;;;;3.67;100.00;97070.47;6062380;23;20047;-91
2023/01/18 02:07:32;;;;;;;0.10;0.10;;;;;;;3.58;100.00;97070.47;6063615;23;20011;-91
2023/01/18 02:09:58;;;;;;;0.22;0.22;;;;;;;3.71;100.00;97096.47;6063033;23;20015;-90
2023/01/18 02:12:24;;;;;;;0.10;0.10;;;;;;;3.66;100.00;97086.13;6040013;23;20093;-93
2023/01/18 02:14:50;;;;;;;0.10;0.10;;;;;;;3.57;100.00;97068.94;6063438;23;20082;-94
2023/01/18 02:17:30;;;;;;;0.00;0.00;;;;;;;3.80;100.00;97095.69;6063228;23;20010;-93
2023/01/18 02:20:18;;;;;;;0.13;0.13;;;;;;;3.73;100.00;97093.25;6063268;23;20046;-93
2023/01/18 02:22:46;;;;;;;0.75;0.75;;;;;;;3.79;100.00;97093.41;6087963;23;20102;-93
2023/01/18 02:25:35;;;;;;;0.10;0.10;;;;;;;3.78;100.00;97094.63;6062734;23;20349;-92
2023/01/18 02:28:04;;;;;;;0.00;0.00;;;;;;;3.71;100.00;97082.78;6064176;23;20050;-91
2023/01/18 02:30:34;;;;;;;0.17;0.17;;;;;;;3.41;100.00;97053.63;6064689;23;20051;-93
2023/01/18 02:33:17;;;;;;;0.63;0.63;;;;;;;3.60;100.00;97082.50;6063822;23;20022;-93
2023/01/18 02:35:55;;;;;;;0.80;0.75;;;;;;;3.66;100.00;97088.88;6045342;23;20038;-93
2023/01/18 02:38:43;;;;;;;0.10;0.10;;;;;;;3.64;100.00;97091.31;6010769;23;20072;-93
2023/01/18 02:47:17;;;;;;;0.32;0.32;;;;;;;3.61;100.00;97073.06;6034414;23;20019;-92
2023/01/18 02:49:42;;;;;;;0.10;0.10;;;;;;;3.71;100.00;97092.97;5987608;23;20050;-90
2023/01/18 02:52:36;;;;;;;0.28;0.28;;;;;;;3.63;100.00;97084.34;6034962;23;20383;-90
2023/01/18 02:55:02;;;;;;;0.20;0.20;;;;;;;3.71;100.00;97096.47;6033906;23;20396;-90
2023/01/18 02:57:28;;;;;;;0.10;0.10;;;;;;;3.55;100.00;97074.91;6010262;23;20019;-91
2023/01/18 02:59:54;;;;;;;0.73;0.73;;;;;;;3.50;100.00;97061.81;6009899;23;20003;-91
2023/01/18 03:02:21;;;;;;;0.10;0.10;;;;;;;3.52;100.00;97075.09;5986940;23;20079;-90
2023/01/18 03:04:54;;;;;;;0.45;0.45;;;;;;;3.64;100.00;97113.25;5987249;23;20034;-91
2023/01/18 03:07:59;;;;;;;0.20;0.20;;;;;;;3.56;100.00;97101.06;6010384;23;20042;-93
2023/01/18 03:10:27;;;;;;;0.35;0.35;;;;;;;3.53;100.00;97098.50;5979370;23;20027;-91
2023/01/18 03:13:26;;;;;;;0.50;0.45;;;;;;;3.39;100.00;97080.75;6010367;23;20014;-92
2023/01/18 03:16:08;;;;;;;0.47;0.47;;;;;;;3.55;100.00;97098.81;6030805;23;20015;-90
2023/01/18 03:19:00;;;;;;;0.30;0.30;;;;;;;3.52;100.00;97105.97;5987131;23;20030;-90
2023/01/18 03:21:47;;;;;;;0.47;0.47;;;;;;;3.64;100.00;97113.25;6014973;23;20011;-91
2023/01/18 03:24:14;;;;;;;0.15;0.15;;;;;;;3.51;100.00;97100.97;6011929;23;20090;-91
2023/01/18 03:26:43;;;;;;;0.88;0.85;;;;;;;3.44;100.00;97104.03;6013047;23;20048;-90
2023/01/18 03:34:51;;;;;;;0.10;0.10;;;;;;;3.68;100.00;97152.22;6035501;23;20114;-91
2023/01/18 03:37:25;;;;;;;0.37;0.37;;;;;;;3.69;100.00;97148.25;6012606;23;20011;-91
2023/01/18 03:39:55;;;;;;;0.28;0.28;;;;;;;3.50;100.00;97124.09;5988789;23;20255;-92
2023/01/18 03:42:27;;;;;;;0.00;0.00;;;;;;;3.49;100.00;97134.28;6012016;23;20079;-91
2023/01/18 03:44:57;;;;;;;0.32;0.32;;;;;;;3.54;100.00;97141.91;6035455;23;20454;-92
2023/01/18 03:47:23;;;;;;;0.28;0.28;;;;;;;3.58;100.00;97153.47;5989039;23;20035;-91
2023/01/18 03:49:49;;;;;;;0.28;0.28;;;;;;;3.44;100.00;97126.69;6011228;23;20015;-90
2023/01/18 03:52:24;;;;;;;0.10;0.10;;;;;;;3.60;100.00;97144.78;6034981;23;20038;-90
2023/01/18 03:55:15;;;;;;;0.40;0.40;;;;;;;3.49;100.00;97134.28;6035212;23;20574;-92
2023/01/18 03:57:41;;;;;;;0.05;0.05;;;;;;;3.66;100.00;97162.88;6008658;23;20146;-90
2023/01/18 04:00:08;;;;;;;0.10;0.10;;;;;;;3.52;100.00;97138.13;6012215;23;20051;-90
2023/01/18 04:02:38;;;;;;;0.10;0.10;;;;;;;3.69;100.00;97158.47;6013380;23;20017;-90
2023/01/18 04:05:04;;;;;;;0.93;0.85;;;;;;;3.55;100.00;97142.66;6011455;23;20035;-90
2023/01/18 04:07:31;;;;;;;0.00;0.00;;;;;;;3.66;100.00;97164.88;6011976;23;20099;-92
2023/01/18 04:09:57;;;;;;;0.00;0.00;;;;;;;3.60;100.00;97153.03;5988191;23;20035;-91
2023/01/18 04:12:23;;;;;;;0.57;0.57;;;;;;;3.59;100.00;97157.72;6011466;23;20087;-91
2023/01/18 04:14:48;;;;;;;0.10;0.10;;;;;;;3.69;100.00;97180.38;5988473;23;20187;-92
2023/01/18 04:17:14;;;;;;;1.52;1.13;;;;;;;3.66;100.00;97171.13;5988866;23;20023;-91
2023/01/18 04:19:40;;;;;;;0.65;0.65;;;;;;;3.64;100.00;97145.41;5987972;23;20070;-91
2023/01/18 04:22:06;;;;;;;0.05;0.05;;;;;;;3.58;100.00;97160.91;6011658;23;20345;-91
2023/01/18 04:24:31;;;;;;;0.47;0.47;;;;;;;3.53;100.00;97173.25;5987953;23;20015;-92
2023/01/18 04:26:57;;;;;;;0.20;0.20;;;;;;;3.51;100.00;97178.44;6011928;23;20018;-90
2023/01/18 04:29:23;;;;;;;0.30;0.30;;;;;;;3.53;100.00;97186.97;6034653;23;20106;-90
2023/01/18 04:31:49;;;;;;;0.47;0.47;;;;;;;3.65;100.00;97218.94;6012243;23;20353;-90
2023/01/18 04:34:14;;;;;;;0.25;0.25;;;;;;;3.66;100.00;97220.44;6011019;23;20040;-90
2023/01/18 04:36:40;;;;;;;3.83;0.55;;;;;;;3.72;100.00;97224.09;6035100;23;20022;-90
2023/01/18 04:39:06;;;;;;;0.60;0.60;;;;;;;3.60;100.00;97233.25;6035622;23;20015;-90
2023/01/18 04:41:31;;;;;;;0.50;0.50;;;;;;;3.69;100.00;97238.72;6012516;23;20013;-91
2023/01/18 04:43:57;;;;;;;0.10;0.10;;;;;;;3.61;100.00;97243.00;6011247;23;20019;-91
2023/01/18 04:46:23;;;;;;;0.43;0.43;;;;;;;3.47;100.00;97221.69;6011762;23;20074;-91
2023/01/18 04:48:52;;;;;;;0.10;0.10;;;;;;;3.57;100.00;97230.66;6010659;23;20020;-91
2023/01/18 04:51:18;;;;;;;0.00;0.00;;;;;;;3.49;100.00;97232.94;5987813;23;20350;-92
2023/01/18 04:53:44;;;;;;;0.38;0.38;;;;;;;3.59;100.00;97242.69;6011814;23;20015;-91
2023/01/18 04:56:10;;;;;;;0.10;0.10;;;;;;;3.59;100.00;97226.25;6011455;23;20453;-91
2023/01/18 04:58:36;;;;;;;1.17;0.63;;;;;;;3.61;100.00;97223.81;6011152;23;20015;-93
2023/01/18 05:01:03;;;;;;;0.73;0.73;;;;;;;3.47;100.00;97202.50;6011772;23;20054;-92
2023/01/18 05:03:28;;;;;;;0.35;0.35;;;;;;;3.49;100.00;97200.06;5988066;23;20023;-90
2023/01/18 05:05:54;;;;;;;0.00;0.00;;;;;;;3.48;100.00;97186.84;6035419;23;20454;-89
2023/01/18 05:08:20;;;;;;;0.35;0.35;;;;;;;3.53;100.00;97200.66;6034290;23;20015;-90
2023/01/18 05:10:45;;;;;;;0.80;0.80;;;;;;;3.53;100.00;97194.41;6011878;23;20018;-89
2023/01/18 05:13:11;;;;;;;0.60;0.60;;;;;;;3.61;100.00;97201.09;6035876;23;20047;-90
2023/01/18 05:15:36;;;;;;;1.40;0.45;;;;;;;3.54;100.00;97190.47;6036232;23;20003;-91
2023/01/18 05:18:02;;;;;;;0.00;0.00;;;;;;;3.61;100.00;97207.34;6011036;23;20348;-90
2023/01/18 05:20:28;;;;;;;0.20;0.20;;;;;;;3.53;100.00;97197.94;6035220;23;20467;-90
2023/01/18 05:22:53;;;;;;;0.47;0.47;;;;;;;3.62;100.00;97211.63;6033857;23;20015;-90
2023/01/18 05:25:19;;;;;;;0.65;0.65;;;;;;;3.66;100.00;97223.19;6010432;23;20043;-91
2023/01/18 05:27:44;;;;;;;0.98;0.98;;;;;;;3.52;100.00;97210.09;6011066;23;20019;-91
2023/01/18 05:30:11;;;;;;;0.10;0.10;;;;;;;3.51;100.00;97222.31;6033292;23;20008;-90
2023/01/18 05:32:36;;;;;;;0.30;0.30;;;;;;;3.61;100.00;97234.00;6011354;23;20030;-91
2023/01/18 05:35:05;;;;;;;1.02;0.80;;;;;;;3.68;100.00;97261.13;6026983;23;20038;-91
2023/01/18 05:37:31;;;;;;;0.43;0.43;;;;;;;3.59;100.00;97253.66;6063560;23;20085;-91
2023/01/18 05:39:56;;;;;;;0.73;0.52;;;;;;;3.41;100.00;97247.41;6087686;23;20030;-91
2023/01/18 05:42:22;;;;;;;0.25;0.25;;;;;;;3.46;100.00;97244.84;6063568;23;20019;-90
2023/01/18 05:44:47;;;;;;;0.68;0.68;;;;;;;3.61;100.00;97273.13;6086258;23;20322;-89
2023/01/18 05:47:13;;;;;;;0.30;0.30;;;;;;;3.49;100.00;97254.88;6063580;23;20054;-89
2023/01/18 05:49:38;;;;;;;0.82;0.82;;;;;;;3.47;100.00;97267.50;6063391;23;20018;-89
2023/01/18 05:52:04;;;;;;;0.35;0.28;;;;;;;3.46;100.00;97277.72;6062845;23;20014;-89
2023/01/18 05:54:29;;;;;;;0.20;0.20;;;;;;;3.55;100.00;97302.38;6062503;23;20609;-89
2023/01/18 05:56:55;;;;;;;1.27;1.17;;;;;;;3.50;100.00;97294.75;6061876;23;20022;-90
2023/01/18 05:59:21;;;;;;;1.85;1.00;;;;;;;3.44;100.00;97307.53;6036680;23;20037;-89
2023/01/18 06:01:46;;;;;;;1.00;1.00;;;;;;;3.44;100.00;97307.53;6013764;23;20329;-91
2023/01/18 06:04:12;;;;;;;0.40;0.40;;;;;;;3.53;100.00;97332.22;6058062;23;20019;-90
2023/01/18 06:06:38;;;;;;;1.77;1.67;;;;;;;3.45;100.00;97309.06;6060044;23;20349;-90
2023/01/18 06:09:03;;;;;;;1.15;0.85;;;;;;;3.43;100.00;97316.22;6035760;23;20003;-90
2023/01/18 06:11:29;;;;;;;2.45;0.95;;;;;;;3.46;100.00;97321.56;6036677;23;20114;-88
2023/01/18 06:13:54;;;;;;;0.38;0.38;;;;;;;3.47;100.00;97334.06;6061830;23;20010;-89
2023/01/18 06:16:20;;;;;;;1.48;1.38;;;;;;;3.37;100.00;97313.31;6062399;23;20445;-89
2023/01/18 06:18:45;;;;;;;0.80;0.73;;;;;;;3.59;100.00;97349.59;6061162;23;20402;-88
2023/01/18 06:21:11;;;;;;;0.88;0.20;;;;;;;3.45;100.00;97330.22;6014680;23;20017;-90
2023/01/18 06:23:37;;;;;;;0.32;0.32;;;;;;;3.56;100.00;97357.97;6061776;23;20018;-88
2023/01/18 06:26:03;;;;;;;0.55;0.55;;;;;;;3.43;100.00;97338.91;6060172;23;20014;-89
2023/01/18 06:28:28;;;;;;;7.30;1.58;;;;;;;3.56;100.00;97360.72;6085033;23;20008;-87
2023/01/18 06:30:55;;;;;;;0.63;0.63;;;;;;;3.61;100.00;97374.56;6038275;23;20098;-91
2023/01/18 06:33:24;;;;;;;4.55;1.77;;;;;;;3.58;100.00;97361.78;6061403;23;20007;-91
2023/01/18 06:35:50;;;;;;;0.43;0.43;;;;;;;3.59;100.00;97368.03;6014141;23;20011;-87
2023/01/18 06:38:15;;;;;;;1.10;0.82;;;;;;;3.51;100.00;97367.56;6012855;23;20014;-90
2023/01/18 06:40:41;;;;;;;0.85;0.85;;;;;;;3.55;100.00;97372.88;6060920;23;20038;-91
2023/01/18 06:43:09;;;;;;;0.00;0.00;;;;;;;3.52;100.00;97374.53;6011385;23;20101;-89
2023/01/18 06:45:34;;;;;;;0.25;0.25;;;;;;;3.55;100.00;97362.69;6039122;23;20015;-89
2023/01/18 06:48:00;;;;;;;0.10;0.10;;;;;;;3.31;100.00;97326.09;6062506;23;20019;-91
2023/01/18 06:50:26;;;;;;;0.57;0.57;;;;;;;3.39;100.00;97330.09;6065805;23;20007;-92
2023/01/18 06:52:51;;;;;;;0.20;0.20;;;;;;;3.49;100.00;97342.56;6042374;23;20015;-92
2023/01/18 06:55:18;;;;;;;2.92;0.68;;;;;;;3.36;100.00;97322.75;6066688;23;20014;-93
2023/01/18 06:57:44;;;;;;;0.10;0.10;;;;;;;3.45;100.00;97341.19;6068077;23;20018;-87
2023/01/18 07:00:11;;;;;;;2.72;1.75;;;;;;;3.51;100.00;97351.09;6039374;23;20402;-88
2023/01/18 07:02:36;;;;;;;0.20;0.20;;;;;;;3.49;100.00;97369.22;6040577;23;20018;-88
2023/01/18 07:05:03;;;;;;;0.10;0.10;;;;;;;3.43;100.00;97360.84;6064250;23;20422;-89
2023/01/18 07:07:29;;;;;;;0.52;0.52;;;;;;;3.51;100.00;97400.44;6041240;23;20025;-91
2023/01/18 07:09:54;;;;;;;0.88;0.52;;;;;;;3.43;100.00;97401.94;6041130;23;20097;-89
2023/01/18 07:12:20;;;;;;;1.42;1.33;;;;;;;3.49;100.00;97418.53;6065035;23;20066;-89
2023/01/18 07:14:46;;;;;;;1.02;1.02;;;;;;;3.33;100.00;97421.53;6067780;23;20043;-95
2023/01/18 07:17:12;;;;;;;1.08;0.90;;;;;;;3.30;100.00;97423.22;6043836;23;20070;-89
2023/01/18 07:19:37;;;;;;;1.10;1.00;;;;;;;3.41;100.00;97445.47;6066431;23;20011;-89
2023/01/18 07:22:03;;;;;;;0.10;0.10;;;;;;;3.43;100.00;97470.44;6064589;23;20323;-89
2023/01/18 07:24:29;;;;;;;0.73;0.73;;;;;;;3.42;100.00;97457.97;6064134;23;20027;-89
2023/01/18 07:26:54;;;;;;;0.77;0.77;;;;;;;3.50;100.00;97486.63;6066935;23;20131;-89
2023/01/18 07:29:20;;;;;;;0.22;0.22;;;;;;;3.47;100.00;97489.50;6064754;23;20856;-90
2023/01/18 07:31:46;;;;;;;1.45;1.17;;;;;;;3.25;100.00;97464.88;6065199;23;20018;-89
2023/01/18 07:34:12;;;;;;;1.73;1.17;;;;;;;3.46;100.00;97496.94;6063756;23;20059;-89
2023/01/18 07:36:38;;;;;;;0.30;0.30;;;;;;;3.47;100.00;97516.91;6066338;23;20034;-94
2023/01/18 07:39:05;;;;;;;0.40;0.40;;;;;;;3.30;100.00;97483.47;6044041;23;20014;-94
2023/01/18 07:41:31;;;;;;;0.10;0.10;;;;;;;3.32;100.00;97497.47;6020865;23;20022;-93
2023/01/18 07:43:56;;;;;;;0.98;0.80;;;;;;;3.26;100.00;97493.81;6043923;23;20438;-94
2023/01/18 07:46:24;;;;;;;0.63;0.47;;;;;;;3.56;100.00;97539.59;6020590;23;20014;-94
2023/01/18 07:48:51;;;;;;;0.20;0.20;;;;;;;3.55;100.00;97538.09;6020787;23;20023;-95
2023/01/18 07:51:18;;;;;;;1.10;1.10;;;;;;;3.45;100.00;97531.03;6044433;23;20026;-94
2023/01/18 07:53:44;;;;;;;0.17;0.17;;;;;;;3.48;100.00;97548.56;6021220;23;20011;-94
2023/01/18 07:56:12;;;;;;;0.28;0.28;;;;;;;3.37;100.00;97538.00;6041654;23;20067;-89
2023/01/18 07:58:38;;;;;;;0.20;0.20;;;;;;;3.45;100.00;97542.00;6088883;23;20398;-88
2023/01/18 08:01:09;;;;;;;0.47;0.47;;;;;;;3.57;100.00;97565.81;6088703;23;20046;-88
2023/01/18 08:03:35;;;;;;;0.50;0.40;;;;;;;3.47;100.00;97547.81;6064565;23;20583;-89
2023/01/18 08:06:03;;;;;;;1.40;1.30;;;;;;;3.61;100.00;97568.41;6087728;23;20015;-88
2023/01/18 08:08:29;;;;;;;0.85;0.85;;;;;;;3.56;100.00;97547.84;6040029;23;20074;-88
2023/01/18 08:10:55;;;;;;;0.45;0.45;;;;;;;3.59;100.00;97554.41;6040924;23;20015;-89
2023/01/18 08:13:22;;;;;;;0.65;0.50;;;;;;;3.71;100.00;97562.53;6064315;23;20030;-89
2023/01/18 08:15:47;;;;;;;0.05;0.05;;;;;;;3.72;100.00;97568.78;6069044;23;20058;-93
2023/01/18 08:18:13;;;;;;;0.00;0.00;;;;;;;3.69;100.00;97550.47;6020166;23;20002;-93
2023/01/18 08:20:42;;;;;;;0.25;0.17;;;;;;;3.91;100.00;97577.84;6044198;23;20019;-93
2023/01/18 08:23:08;;;;;;;2.53;0.57;;;;;;;3.89;100.00;97566.53;6019697;23;20354;-93
2023/01/18 08:25:33;;;;;;;0.47;0.47;;;;;;;4.04;100.00;97578.50;6020340;23;20003;-93
2023/01/18 08:28:00;;;;;;;0.20;0.20;;;;;;;4.18;100.00;97599.88;6019791;23;20574;-94
2023/01/18 08:30:27;;;;;;;0.95;0.95;;;;;;;3.90;100.00;97587.28;6043668;23;20014;-95
2023/01/18 08:32:57;;;;;;;0.13;0.13;;;;;;;4.07;100.00;97605.78;6044095;23;20019;-96
2023/01/18 08:35:23;;;;;;;1.00;1.00;;;;;;;3.95;100.00;97592.94;6067880;23;20014;-95
2023/01/18 08:37:49;;;;;;;0.40;0.40;;;;;;;4.02;100.00;97602.88;6044035;23;20441;-94
2023/01/18 08:40:14;;;;;;;1.05;1.02;;;;;;;3.93;100.00;97589.13;6067215;23;20015;-93
2023/01/18 08:42:40;;;;;;;0.20;0.20;;;;;;;4.09;100.00;97608.84;6067655;23;20519;-93
2023/01/18 08:45:06;;;;;;;0.40;0.40;;;;;;;4.17;100.00;97632.03;6043187;23;20025;-94
2023/01/18 08:47:32;;;;;;;0.10;0.10;;;;;;;4.15;100.00;97633.72;6043731;23;20007;-94
2023/01/18 08:49:58;;;;;;;1.17;1.17;;;;;;;4.09;100.00;97619.03;6043966;23;20019;-95
2023/01/18 08:52:24;;;;;;;0.73;0.60;;;;;;;4.09;100.00;97635.50;6019226;23;20469;-89
2023/01/18 08:54:49;;;;;;;0.20;0.20;;;;;;;4.06;100.00;97639.16;6063417;23;20414;-89
2023/01/18 08:57:15;;;;;;;0.20;0.20;;;;;;;4.20;100.00;97658.59;6040146;23;20033;-89
2023/01/18 08:59:41;;;;;;;0.80;0.63;;;;;;;4.14;100.00;97656.88;6064161;23;20029;-89
2023/01/18 09:02:09;;;;;;;0.57;0.32;;;;;;;4.03;100.00;97642.81;6087677;23;20011;-89
2023/01/18 09:04:34;;;;;;;0.15;0.15;;;;;;;4.07;100.00;97660.66;6064381;23;20007;-89
2023/01/18 09:07:00;;;;;;;0.20;0.20;;;;;;;4.14;100.00;97671.34;6063549;23;20460;-88
2023/01/18 09:09:26;;;;;;;0.22;0.22;;;;;;;4.12;100.00;97694.97;6039536;23;20034;-90
2023/01/18 09:11:51;;;;;;;0.00;0.00;;;;;;;4.12;100.00;97705.94;6089418;23;20018;-95
2023/01/18 09:14:17;;;;;;;1.02;0.75;;;;;;;4.15;100.00;97710.53;6043373;23;20083;-94
2023/01/18 09:16:43;;;;;;;0.68;0.68;;;;;;;4.09;100.00;97715.06;6043713;23;20010;-93
2023/01/18 09:19:08;;;;;;;0.47;0.47;;;;;;;4.27;100.00;97728.88;6019317;23;20066;-93
2023/01/18 09:21:34;;;;;;;4.65;1.35;;;;;;;4.27;100.00;97726.13;6067570;23;20011;-95
2023/01/18 09:24:00;;;;;;;0.82;0.82;;;;;;;4.22;100.00;97729.47;6019642;23;20624;-93
2023/01/18 09:26:27;;;;;;;0.00;0.00;;;;;;;4.44;100.00;97765.88;6043498;23;20066;-94
2023/01/18 09:28:53;;;;;;;2.17;1.23;;;;;;;4.40;100.00;97759.75;6043749;23;20018;-95
2023/01/18 09:31:20;;;;;;;0.43;0.43;;;;;;;4.40;100.00;97770.72;6017863;23;20105;-90
2023/01/18 09:33:46;;;;;;;0.20;0.20;;;;;;;4.36;100.00;97750.88;6064859;23;20025;-90
2023/01/18 09:36:12;;;;;;;0.20;0.20;;;;;;;4.45;100.00;97761.16;6062903;23;20014;-90
2023/01/18 09:38:40;;;;;;;0.28;0.28;;;;;;;4.47;100.00;97761.44;6063405;23;20066;-91
2023/01/18 09:41:15;;;;;;;0.63;0.63;;;;;;;4.59;100.00;97775.06;6063554;23;20006;-89
2023/01/18 09:43:47;;;;;;;2.50;0.95;;;;;;;4.63;100.00;97766.69;6063513;23;20018;-89
2023/01/18 09:46:18;;;;;;;0.05;0.05;;;;;;;4.83;100.00;97786.31;6063296;23;20022;-91
2023/01/18 09:48:44;;;;;;;0.63;0.63;;;;;;;4.70;100.00;97772.66;6068445;23;20453;-95
2023/01/18 09:51:22;;;;;;;0.10;0.10;;;;;;;4.78;100.00;97794.34;6016489;23;20010;-89
2023/01/18 09:54:01;;;;;;;0.40;0.40;;;;;;;4.82;100.00;97800.47;6086962;23;20073;-90
2023/01/18 09:56:41;;;;;;;0.30;0.30;;;;;;;4.63;100.00;97778.44;6063297;23;20019;-90
2023/01/18 09:59:31;;;;;;;3.90;0.95;;;;;;;4.58;100.00;97787.28;6063363;23;20023;-90
2023/01/18 10:02:00;;;;;;;0.08;0.08;;;;;;;4.76;100.00;97796.81;6087745;23;20046;-89
2023/01/18 10:04:35;;;;;;;0.10;0.10;;;;;;;4.57;100.00;97772.00;6039459;23;20544;-90
2023/01/18 10:07:13;;;;;;;0.10;0.10;;;;;;;4.83;100.00;97791.03;6087838;23;20015;-90
2023/01/18 10:09:42;;;;;;;1.00;0.98;;;;;;;5.03;100.00;97799.63;6065476;23;20035;-95
2023/01/18 10:12:20;;;;;;;0.65;0.65;;;;;;;5.06;100.00;97796.75;6019130;23;20011;-94
2023/01/18 10:14:53;;;;;;;0.30;0.30;;;;;;;5.10;100.00;97782.84;6066760;23;20058;-95
2023/01/18 10:17:27;;;;;;;0.85;0.85;;;;;;;5.13;100.00;97787.47;6066989;23;20026;-95
2023/01/18 10:19:53;;;;;;;0.68;0.32;;;;;;;5.23;100.00;97797.25;6042822;23;20019;-95
2023/01/18 10:22:36;;;;;;;0.22;0.22;;;;;;;5.30;100.00;97785.22;6019744;23;20090;-94
2023/01/18 10:25:34;;;;;;;0.00;0.00;;;;;;;5.57;100.00;97793.47;6043389;23;20023;-94
2023/01/18 10:28:24;;;;;;;2.85;1.48;;;;;;;5.72;100.00;97796.38;6065335;23;20446;-90
2023/01/18 10:31:09;;;;;;;0.65;0.65;;;;;;;5.77;100.00;97802.03;6066381;23;20508;-89
2023/01/18 10:33:39;;;;;;;0.00;0.00;;;;;;;5.93;100.00;97798.25;6065765;23;20047;-89
2023/01/18 10:36:13;;;;;;;0.55;0.55;;;;;;;5.80;100.00;97775.59;6066236;23;20568;-89
2023/01/18 10:38:39;;;;;;;1.30;0.57;;;;;;;5.88;100.00;97791.38;6067414;23;20021;-90
2023/01/18 10:41:14;;;;;;;0.10;0.10;;;;;;;6.08;100.00;97794.41;6066454;23;20086;-90
2023/01/18 10:43:40;;;;;;;0.28;0.28;;;;;;;6.21;100.00;97808.00;6066126;23;20019;-89
2023/01/18 10:46:13;;;;;;;0.32;0.32;;;;;;;6.32;100.00;97808.28;6066213;23;20021;-90
2023/01/18 10:48:44;;;;;;;0.55;0.55;;;;;;;6.39;100.00;97802.44;6066093;23;20023;-90
2023/01/18 10:51:45;;;;;;;0.50;0.50;;;;;;;6.24;100.00;97828.31;6067734;23;20025;-89
2023/01/18 10:54:16;;;;;;;0.80;0.32;;;;;;;6.28;100.00;97835.22;6089772;23;20011;-90
2023/01/18 10:56:43;;;;;;;0.20;0.20;;;;;;;6.01;100.00;97824.22;6090945;23;20045;-91
2023/01/18 10:59:23;;;;;;;0.32;0.25;;;;;;;6.06;100.00;97816.13;6042035;23;20165;-90
2023/01/18 11:01:55;;;;;;;0.55;0.55;;;;;;;6.35;100.00;97828.63;6090245;23;20018;-89
2023/01/18 11:04:24;;;;;;;0.05;0.05;;;;;;;6.44;100.00;97812.84;6065892;23;20014;-90
2023/01/18 11:06:59;;;;;;;0.75;0.75;;;;;;;6.76;100.00;97840.91;6068902;23;20020;-95
2023/01/18 11:09:54;;;;;;;0.70;0.47;;;;;;;6.96;100.00;97857.69;6022630;23;20029;-96
2023/01/18 11:12:33;;;;;;;0.63;0.52;;;;;;;7.06;100.00;97863.94;6070546;23;20028;-96
2023/01/18 11:15:14;;;;;;;0.25;0.22;;;;;;;7.06;100.00;97872.19;6071685;23;20015;-96
2023/01/18 11:17:49;;;;;;;0.68;0.52;;;;;;;6.90;100.00;97873.31;6070225;23;20015;-95
2023/01/18 11:20:24;;;;;;;0.50;0.50;;;;;;;6.79;100.00;97878.56;6094672;23;20010;-95
2023/01/18 11:22:57;;;;;;;0.10;0.10;;;;;;;6.46;100.00;97890.28;6070132;23;20046;-90
2023/01/18 11:25:24;;;;;;;0.00;0.00;;;;;;;6.30;100.00;97868.56;6068792;23;20070;-95
2023/01/18 11:27:50;;;;;;;0.52;0.52;;;;;;;6.15;100.00;97878.66;6046524;23;20250;-95
2023/01/18 11:30:20;;;;;;;0.50;0.50;;;;;;;6.31;100.00;97878.31;6022266;23;20450;-94
2023/01/18 11:32:46;;;;;;;2.80;0.80;;;;;;;6.37;100.00;97848.97;6046480;23;20025;-94
2023/01/18 11:35:21;;;;;;;0.00;0.00;;;;;;;6.81;100.00;97873.34;6069763;23;20014;-96
2023/01/18 11:37:47;;;;;;;0.15;0.15;;;;;;;6.66;100.00;97853.19;6070913;23;20011;-95
2023/01/18 11:40:19;;;;;;;0.10;0.10;;;;;;;6.62;100.00;97885.66;6069961;23;20006;-96
2023/01/18 11:42:45;;;;;;;0.20;0.20;;;;;;;6.23;100.00;97868.84;6065712;23;20022;-89
2023/01/18 11:45:34;;;;;;;0.30;0.30;;;;;;;6.06;100.00;97876.69;6068333;23;20003;-94
2023/01/18 11:48:19;;;;;;;0.63;0.40;;;;;;;6.11;100.00;97904.81;6092675;23;20017;-96
2023/01/18 11:50:51;;;;;;;0.82;0.80;;;;;;;6.01;100.00;97887.53;6068716;23;20022;-94
2023/01/18 11:53:23;;;;;;;0.50;0.50;;;;;;;6.06;100.00;97906.19;6020929;23;20040;-95
2023/01/18 11:56:05;;;;;;;0.43;0.43;;;;;;;6.09;100.00;97906.03;6068563;23;20019;-95
2023/01/18 11:58:33;;;;;;;0.80;0.80;;;;;;;5.94;100.00;97871.31;6022068;23;20015;-95
2023/01/18 12:01:07;;;;;;;0.88;0.80;;;;;;;6.13;100.00;97900.38;6044296;23;20015;-90
2023/01/18 12:03:48;;;;;;;0.70;0.70;;;;;;;6.09;100.00;97894.25;6067674;23;20022;-96
2023/01/18 12:06:22;;;;;;;0.25;0.25;;;;;;;6.07;100.00;97872.69;6091311;23;20085;-95
2023/01/18 12:08:57;;;;;;;2.63;0.88;;;;;;;5.99;100.00;97856.94;6043388;23;20042;-95
2023/01/18 12:11:47;;;;;;;0.95;0.43;;;;;;;5.96;100.00;97855.09;6043936;23;20015;-95
2023/01/18 12:14:34;;;;;;;0.38;0.38;;;;;;;6.26;100.00;97887.22;6044068;23;20043;-95